createdAt,value
2019-01-26T00:03:48.814Z,12.73
2019-01-26T00:06:16.613Z,13.30
2019-01-26T00:08:44.442Z,13.55
2019-01-26T00:11:12.297Z,14.53
2019-01-26T00:13:40.146Z,13.43
2019-01-26T00:16:07.997Z,14.80
2019-01-26T00:18:35.838Z,12.93
2019-01-26T00:21:03.644Z,13.50
2019-01-26T00:23:31.471Z,13.83
2019-01-26T00:25:59.299Z,14.83
2019-01-26T00:28:27.146Z,15.90
2019-01-26T00:30:55.008Z,13.83
2019-01-26T00:33:22.812Z,13.45
2019-01-26T00:35:50.649Z,14.15
2019-01-26T00:38:18.487Z,14.45
2019-01-26T00:40:46.309Z,14.13
2019-01-26T00:43:14.114Z,14.90
2019-01-26T00:45:41.944Z,13.68
2019-01-26T00:48:09.779Z,14.63
2019-01-26T00:50:37.608Z,13.62
2019-01-26T00:53:05.402Z,14.35
2019-01-26T00:55:33.225Z,13.85
2019-01-26T00:58:01.033Z,12.95
2019-01-26T01:00:28.855Z,13.45
2019-01-26T01:02:56.659Z,12.90
2019-01-26T01:05:24.484Z,14.45
2019-01-26T01:07:52.373Z,16.48
2019-01-26T01:10:20.430Z,15.50
2019-01-26T01:12:48.231Z,15.93
2019-01-26T01:15:16.173Z,14.45
2019-01-26T01:17:43.985Z,15.32
2019-01-26T01:20:11.890Z,15.20
2019-01-26T01:22:39.724Z,15.85
2019-01-26T01:25:07.529Z,18.45
2019-01-26T01:27:35.359Z,15.38
2019-01-26T01:33:10.687Z,17.50
2019-01-26T01:35:38.486Z,17.42
2019-01-26T01:38:06.318Z,17.32
2019-01-26T01:40:34.116Z,18.50
2019-01-26T01:43:01.925Z,18.87
2019-01-26T01:45:29.729Z,20.97
2019-01-26T01:47:57.673Z,17.57
2019-01-26T01:50:25.464Z,19.70
2019-01-26T01:52:53.442Z,19.73
2019-01-26T01:55:21.245Z,18.65
2019-01-26T01:57:49.049Z,17.77
2019-01-26T02:03:25.481Z,19.17
2019-01-26T02:05:53.295Z,18.12
2019-01-26T02:08:21.108Z,18.57
2019-01-26T02:10:48.936Z,18.15
2019-01-26T02:13:16.749Z,20.10
2019-01-26T02:15:44.551Z,18.37
2019-01-26T02:18:12.370Z,20.10
2019-01-26T02:20:40.157Z,18.77
2019-01-26T02:23:08.001Z,19.45
2019-01-26T02:25:35.785Z,21.35
2019-01-26T02:28:03.616Z,20.50
2019-01-26T02:30:31.433Z,21.60
2019-01-26T02:32:59.257Z,20.35
2019-01-26T02:35:27.086Z,22.98
2019-01-26T02:37:54.928Z,21.00
2019-01-26T02:40:22.730Z,25.25
2019-01-26T02:42:50.530Z,22.87
2019-01-26T02:45:18.334Z,22.55
2019-01-26T02:47:46.152Z,25.37
2019-01-26T02:50:14.780Z,22.70
2019-01-26T02:52:42.687Z,23.77
2019-01-26T02:58:05.115Z,24.25
2019-01-26T03:00:32.945Z,24.27
2019-01-26T03:03:00.799Z,25.62
2019-01-26T03:05:28.677Z,24.23
2019-01-26T03:07:56.493Z,23.92
2019-01-26T03:10:24.302Z,22.50
2019-01-26T03:12:52.128Z,24.10
2019-01-26T03:15:20.490Z,22.30
2019-01-26T03:17:48.281Z,22.42
2019-01-26T03:20:16.215Z,24.92
2019-01-26T03:22:44.027Z,23.60
2019-01-26T03:25:11.982Z,23.73
2019-01-26T03:27:39.813Z,24.72
2019-01-26T03:33:06.422Z,23.60
2019-01-26T03:35:34.309Z,25.10
2019-01-26T03:38:02.225Z,25.10
2019-01-26T03:40:30.016Z,23.70
2019-01-26T03:42:57.848Z,25.12
2019-01-26T03:45:25.641Z,24.07
2019-01-26T03:47:53.465Z,23.95
2019-01-26T03:50:21.294Z,24.85
2019-01-26T03:52:49.078Z,24.25
2019-01-26T04:00:46.541Z,24.82
2019-01-26T04:03:14.358Z,24.20
2019-01-26T04:05:42.194Z,23.05
2019-01-26T04:08:10.026Z,24.95
2019-01-26T04:10:37.848Z,24.87
2019-01-26T04:13:05.913Z,22.20
2019-01-26T04:15:33.710Z,23.92
2019-01-26T04:18:01.546Z,21.95
2019-01-26T04:20:29.337Z,23.07
2019-01-26T04:22:57.182Z,22.52
2019-01-26T04:25:24.985Z,21.97
2019-01-26T04:27:52.795Z,22.22
2019-01-26T04:33:15.175Z,22.35
2019-01-26T04:35:42.958Z,23.18
2019-01-26T04:38:10.782Z,24.52
2019-01-26T04:40:38.570Z,20.95
2019-01-26T04:43:06.595Z,23.38
2019-01-26T04:45:34.418Z,20.95
2019-01-26T04:48:02.202Z,21.27
2019-01-26T04:50:30.011Z,23.87
2019-01-26T04:52:57.807Z,22.22
2019-01-26T04:55:25.617Z,24.43
2019-01-26T04:57:53.414Z,24.45
2019-01-26T05:00:40.294Z,22.67
2019-01-26T05:03:08.222Z,21.20
2019-01-26T05:05:36.084Z,21.55
2019-01-26T05:08:03.986Z,22.50
2019-01-26T05:10:31.846Z,24.07
2019-01-26T05:12:59.651Z,22.50
2019-01-26T05:15:27.452Z,22.30
2019-01-26T05:17:55.261Z,23.15
2019-01-26T05:20:23.953Z,23.25
2019-01-26T05:22:51.744Z,23.67
2019-01-26T05:25:19.563Z,24.18
2019-01-26T05:27:47.369Z,24.82
2019-01-26T05:30:16.649Z,22.45
2019-01-26T05:32:44.469Z,21.97
2019-01-26T05:35:12.670Z,25.37
2019-01-26T05:37:40.460Z,25.17
2019-01-26T05:40:09.792Z,23.55
2019-01-26T05:42:37.581Z,22.67
2019-01-26T05:45:05.540Z,25.10
2019-01-26T05:47:33.354Z,25.25
2019-01-26T05:50:01.152Z,25.70
2019-01-26T05:52:28.957Z,26.10
2019-01-26T05:54:56.753Z,25.68
2019-01-26T05:57:24.579Z,26.85
2019-01-26T05:59:52.373Z,24.52
2019-01-26T06:02:20.214Z,24.80
2019-01-26T06:04:48.036Z,28.47
2019-01-26T06:07:15.889Z,28.87
2019-01-26T06:09:43.758Z,28.90
2019-01-26T06:12:11.617Z,29.48
2019-01-26T06:14:39.473Z,30.25
2019-01-26T06:17:07.302Z,29.67
2019-01-26T06:19:35.090Z,29.57
2019-01-26T06:22:02.935Z,28.23
2019-01-26T06:24:30.737Z,29.12
2019-01-26T06:26:58.577Z,28.23
2019-01-26T06:29:26.373Z,28.02
2019-01-26T06:31:54.204Z,33.92
2019-01-26T06:34:22.001Z,29.20
2019-01-26T06:36:49.833Z,30.00
2019-01-26T06:39:18.010Z,31.45
2019-01-26T06:41:45.866Z,31.80
2019-01-26T06:44:13.693Z,31.82
2019-01-26T06:46:41.504Z,31.07
2019-01-26T06:49:09.323Z,35.25
2019-01-26T06:54:25.741Z,36.35
2019-01-26T06:57:00.734Z,34.18
2019-01-26T06:59:28.557Z,34.03
2019-01-26T07:01:56.373Z,33.92
2019-01-26T07:04:43.257Z,32.67
2019-01-26T07:07:16.675Z,33.28
2019-01-26T07:09:44.519Z,34.80
2019-01-26T07:12:12.346Z,32.60
2019-01-26T07:14:40.172Z,35.60
2019-01-26T07:17:07.999Z,33.55
2019-01-26T07:19:35.866Z,34.18
2019-01-26T07:25:11.261Z,33.53
2019-01-26T07:27:39.069Z,35.15
2019-01-26T07:30:08.240Z,31.90
2019-01-26T07:32:36.068Z,31.73
2019-01-26T07:35:03.929Z,34.50
2019-01-26T07:37:32.468Z,31.82
2019-01-26T07:40:01.294Z,29.77
2019-01-26T07:42:29.097Z,33.25
2019-01-26T07:44:56.922Z,32.15
2019-01-26T07:47:24.728Z,29.63
2019-01-26T07:49:52.577Z,29.05
2019-01-26T07:52:20.782Z,30.80
2019-01-26T07:54:48.609Z,30.05
2019-01-26T07:57:16.401Z,29.80
2019-01-26T07:59:44.278Z,28.38
2019-01-26T08:02:12.086Z,28.75
2019-01-26T08:04:39.918Z,25.92
2019-01-26T08:07:07.716Z,28.05
2019-01-26T08:09:35.567Z,27.65
2019-01-26T08:12:03.414Z,26.20
2019-01-26T08:14:31.257Z,26.80
2019-01-26T08:16:59.075Z,27.55
2019-01-26T08:19:26.897Z,27.87
2019-01-26T08:21:54.729Z,26.30
2019-01-26T08:24:22.601Z,27.75
2019-01-26T08:26:50.477Z,26.52
2019-01-26T08:29:18.301Z,25.10
2019-01-26T08:31:46.205Z,25.10
2019-01-26T08:37:01.050Z,24.12
2019-01-26T08:39:28.869Z,25.27
2019-01-26T08:41:56.690Z,23.35
2019-01-26T08:44:24.493Z,25.40
2019-01-26T08:46:52.337Z,24.55
2019-01-26T08:49:20.142Z,26.23
2019-01-26T08:51:47.969Z,25.32
2019-01-26T08:54:15.781Z,23.27
2019-01-26T08:56:43.610Z,25.25
2019-01-26T08:59:11.453Z,23.18
2019-01-26T09:01:39.274Z,23.50
2019-01-26T09:04:26.401Z,21.52
2019-01-26T09:06:58.573Z,23.22
2019-01-26T09:09:26.487Z,24.25
2019-01-26T09:11:54.391Z,22.20
2019-01-26T09:14:22.242Z,22.82
2019-01-26T09:19:23.402Z,21.97
2019-01-26T09:21:51.228Z,21.70
2019-01-26T09:24:19.081Z,22.10
2019-01-26T09:26:46.904Z,21.00
2019-01-26T09:29:14.753Z,21.00
2019-01-26T09:31:42.565Z,20.08
2019-01-26T09:34:10.383Z,19.27
2019-01-26T09:36:38.176Z,19.98
2019-01-26T09:42:02.055Z,19.77
2019-01-26T09:44:30.119Z,19.67
2019-01-26T09:46:57.943Z,19.10
2019-01-26T09:49:25.823Z,19.67
2019-01-26T09:51:53.715Z,19.17
2019-01-26T09:54:21.553Z,18.52
2019-01-26T09:56:49.376Z,19.42
2019-01-26T09:59:17.357Z,19.35
2019-01-26T10:01:45.207Z,20.52
2019-01-26T10:04:13.056Z,21.73
2019-01-26T10:06:40.881Z,20.48
2019-01-26T10:09:10.069Z,19.50
2019-01-26T10:11:37.920Z,21.42
2019-01-26T10:16:59.962Z,19.70
2019-01-26T10:19:27.807Z,20.30
2019-01-26T10:21:55.654Z,20.48
2019-01-26T10:24:23.547Z,20.85
2019-01-26T10:26:51.357Z,18.73
2019-01-26T10:29:19.182Z,19.20
2019-01-26T10:31:47.053Z,18.87
2019-01-26T10:34:14.935Z,19.57
2019-01-26T10:36:50.405Z,19.42
2019-01-26T10:39:18.890Z,18.77
2019-01-26T10:42:05.861Z,18.15
2019-01-26T10:44:34.681Z,17.23
2019-01-26T10:47:02.545Z,17.50
2019-01-26T10:49:30.412Z,17.17
2019-01-26T10:54:52.486Z,16.48
2019-01-26T10:57:20.397Z,15.88
2019-01-26T10:59:48.279Z,17.75
2019-01-26T11:02:16.153Z,17.40
2019-01-26T11:04:44.026Z,17.00
2019-01-26T11:07:11.901Z,17.62
2019-01-26T11:09:39.769Z,17.55
2019-01-26T11:12:07.659Z,17.70
2019-01-26T11:14:35.711Z,15.25
2019-01-26T11:17:03.686Z,13.60
2019-01-26T11:19:31.530Z,16.42
2019-01-26T11:21:59.446Z,14.23
2019-01-26T11:24:27.312Z,15.00
2019-01-26T11:26:55.181Z,14.43
2019-01-26T11:29:23.077Z,14.68
2019-01-26T11:31:50.953Z,14.47
2019-01-26T11:34:18.853Z,16.42
2019-01-26T11:36:46.688Z,15.32
2019-01-26T11:39:14.554Z,13.83
2019-01-26T11:41:42.378Z,14.85
2019-01-26T11:44:10.327Z,16.70
2019-01-26T11:46:57.190Z,17.37
2019-01-26T11:49:25.049Z,16.40
2019-01-26T11:52:15.112Z,17.25
2019-01-26T11:55:02.452Z,17.27
2019-01-26T11:57:33.174Z,20.27
2019-01-26T12:00:20.066Z,17.70
2019-01-26T12:03:06.886Z,19.85
2019-01-26T12:05:53.758Z,20.37
2019-01-26T12:08:21.604Z,21.45
2019-01-26T12:13:22.984Z,22.40
2019-01-26T12:15:50.858Z,23.67
2019-01-26T12:18:18.779Z,22.37
2019-01-26T12:20:46.673Z,22.35
2019-01-26T12:23:14.601Z,24.07
2019-01-26T12:25:42.593Z,26.87
2019-01-26T12:28:10.426Z,25.68
2019-01-26T12:30:38.328Z,26.35
2019-01-26T12:33:06.305Z,27.67
2019-01-26T12:35:34.162Z,28.92
2019-01-26T12:38:02.026Z,27.90
2019-01-26T12:40:29.895Z,25.57
2019-01-26T12:42:59.208Z,27.60
2019-01-26T12:45:27.376Z,25.70
2019-01-26T12:47:55.225Z,24.92
2019-01-26T12:50:23.126Z,26.73
2019-01-26T12:52:51.280Z,24.00
2019-01-26T12:55:19.241Z,22.52
2019-01-26T12:57:47.126Z,22.82
2019-01-26T13:00:16.462Z,22.55
2019-01-26T13:02:44.620Z,21.77
2019-01-26T13:10:55.149Z,23.85
2019-01-26T13:13:23.040Z,18.82
2019-01-26T13:15:50.873Z,21.80
2019-01-26T13:18:18.726Z,20.10
2019-01-26T13:20:46.689Z,18.52
2019-01-26T13:23:14.558Z,16.32
2019-01-26T13:25:42.423Z,16.32
2019-01-26T13:28:10.280Z,15.63
2019-01-26T13:30:38.083Z,17.17
2019-01-26T13:33:05.926Z,18.25
2019-01-26T13:35:33.740Z,20.17
2019-01-26T13:38:01.589Z,19.45
2019-01-26T13:40:29.445Z,20.25
2019-01-26T13:42:57.294Z,19.05
2019-01-26T13:45:25.117Z,21.52
2019-01-26T13:47:52.965Z,22.30
2019-01-26T13:50:20.749Z,21.33
2019-01-26T13:52:48.836Z,21.40
2019-01-26T13:55:17.332Z,22.10
2019-01-26T13:57:45.179Z,20.82
2019-01-26T14:00:32.146Z,20.95
2019-01-26T14:03:00.062Z,20.50
2019-01-26T14:05:27.887Z,20.43
2019-01-26T14:07:55.718Z,22.45
2019-01-26T14:10:23.565Z,20.68
2019-01-26T14:12:51.679Z,19.85
2019-01-26T14:17:53.189Z,20.57
2019-01-26T14:20:21.775Z,21.10
2019-01-26T14:22:49.582Z,21.45
2019-01-26T14:25:17.537Z,22.55
2019-01-26T14:30:55.085Z,21.05
2019-01-26T14:33:22.902Z,22.58
2019-01-26T14:35:50.750Z,22.42
2019-01-26T14:38:18.583Z,21.87
2019-01-26T14:40:46.437Z,21.40
2019-01-26T14:43:14.292Z,21.73
2019-01-26T14:45:42.228Z,24.60
2019-01-26T14:48:10.078Z,22.27
2019-01-26T14:50:37.944Z,21.40
2019-01-26T14:53:05.799Z,20.80
2019-01-26T14:55:33.695Z,21.40
2019-01-26T14:58:01.502Z,19.52
2019-01-26T15:00:30.330Z,20.82
2019-01-26T15:02:58.175Z,21.87
2019-01-26T15:08:20.294Z,18.82
2019-01-26T15:10:48.154Z,20.00
2019-01-26T15:13:16.024Z,18.12
2019-01-26T15:15:43.914Z,18.65
2019-01-26T15:18:11.816Z,18.17
2019-01-26T15:20:40.190Z,20.27
2019-01-26T15:26:02.346Z,17.70
2019-01-26T15:28:30.230Z,16.97
2019-01-26T15:30:58.319Z,16.80
2019-01-26T15:33:26.190Z,17.35
2019-01-26T15:35:54.074Z,15.83
2019-01-26T15:38:21.997Z,15.83
2019-01-26T15:40:49.807Z,15.70
2019-01-26T15:43:17.681Z,13.90
2019-01-26T15:45:46.837Z,14.35
2019-01-26T15:48:14.720Z,12.47
2019-01-26T15:50:42.585Z,13.45
2019-01-26T15:53:10.434Z,11.30
2019-01-26T15:55:38.265Z,12.03
2019-01-26T15:58:06.247Z,11.90
2019-01-26T16:00:35.256Z,10.03
2019-01-26T16:03:03.111Z,11.48
2019-01-26T16:05:30.947Z,11.43
2019-01-26T16:07:59.018Z,10.45
2019-01-26T16:10:26.971Z,10.80
2019-01-26T16:12:54.894Z,10.13
2019-01-26T16:15:23.963Z,10.82
2019-01-26T16:17:52.108Z,11.12
2019-01-26T16:20:20.583Z,11.03
2019-01-26T16:22:49.845Z,9.58
2019-01-26T16:25:17.706Z,9.83
2019-01-26T16:27:45.541Z,10.38
2019-01-26T16:30:32.443Z,12.40
2019-01-26T16:33:00.386Z,11.15
2019-01-26T16:35:28.569Z,11.83
2019-01-26T16:37:56.439Z,11.78
2019-01-26T16:40:25.466Z,12.00
2019-01-26T16:42:53.323Z,10.78
2019-01-26T16:45:22.409Z,10.20
2019-01-26T16:47:50.214Z,10.95
2019-01-26T16:50:37.146Z,10.88
2019-01-26T16:53:04.999Z,10.38
2019-01-26T16:55:32.813Z,11.15
2019-01-26T16:58:00.683Z,10.50
2019-01-26T17:00:30.428Z,10.90
2019-01-26T17:02:58.302Z,10.55
2019-01-26T17:05:26.172Z,11.63
2019-01-26T17:07:54.081Z,10.60
2019-01-26T17:10:21.921Z,10.93
2019-01-26T17:15:23.537Z,12.40
2019-01-26T17:17:51.414Z,12.55
2019-01-26T17:20:39.919Z,12.65
2019-01-26T17:23:08.125Z,12.40
2019-01-26T17:25:36.085Z,11.90
2019-01-26T17:28:04.078Z,11.60
2019-01-26T17:30:33.263Z,12.10
2019-01-26T17:33:07.353Z,11.55
2019-01-26T17:35:30.809Z,10.88
2019-01-26T17:37:58.793Z,11.05
2019-01-26T17:40:26.825Z,10.55
2019-01-26T17:42:55.048Z,11.80
2019-01-26T17:45:22.955Z,12.98
2019-01-26T17:47:51.120Z,12.00
2019-01-26T17:50:19.862Z,11.68
2019-01-26T17:52:47.732Z,11.03
2019-01-26T17:57:49.865Z,13.90
2019-01-26T18:00:24.574Z,13.50
2019-01-26T18:02:52.443Z,12.03
2019-01-26T18:05:20.398Z,15.20
2019-01-26T18:07:48.271Z,13.25
2019-01-26T18:10:17.126Z,14.83
2019-01-26T18:12:45.101Z,13.72
2019-01-26T18:15:13.339Z,11.83
2019-01-26T18:17:41.178Z,12.37
2019-01-26T18:20:10.689Z,11.57
2019-01-26T18:22:38.534Z,12.85
2019-01-26T18:25:06.461Z,12.88
2019-01-26T18:27:34.360Z,12.55
2019-01-26T18:30:02.263Z,12.47
2019-01-26T18:32:30.440Z,12.37
2019-01-26T18:34:58.345Z,12.20
2019-01-26T18:37:26.201Z,13.43
2019-01-26T18:39:54.067Z,11.70
2019-01-26T18:42:21.899Z,12.10
2019-01-26T18:44:49.793Z,13.18
2019-01-26T18:47:17.721Z,12.85
2019-01-26T18:49:45.602Z,13.08
2019-01-26T18:52:13.606Z,13.25
2019-01-26T18:54:41.470Z,12.55
2019-01-26T18:57:09.433Z,13.10
2019-01-26T18:59:37.359Z,13.13
2019-01-26T19:05:03.659Z,11.83
2019-01-26T19:07:33.317Z,10.85
2019-01-26T19:10:01.186Z,11.35
2019-01-26T19:12:29.209Z,9.75
2019-01-26T19:14:57.103Z,10.23
2019-01-26T19:17:27.477Z,9.03
2019-01-26T19:19:55.415Z,8.90
2019-01-26T19:22:23.375Z,9.85
2019-01-26T19:24:51.404Z,9.48
2019-01-26T19:29:53.178Z,8.13
2019-01-26T19:32:23.250Z,7.85
2019-01-26T19:34:51.142Z,8.48
2019-01-26T19:37:19.075Z,8.08
2019-01-26T19:39:47.007Z,7.67
2019-01-26T19:44:54.383Z,7.25
2019-01-26T19:47:22.365Z,7.25
2019-01-26T19:52:39.055Z,6.47
2019-01-26T19:55:07.087Z,6.30
2019-01-26T19:57:35.020Z,6.60
2019-01-26T20:00:03.001Z,5.90
2019-01-26T20:02:30.849Z,6.50
2019-01-26T20:04:58.771Z,6.67
2019-01-26T20:07:26.647Z,6.10
2019-01-26T20:12:28.124Z,5.85
2019-01-26T20:14:55.998Z,5.30
2019-01-26T20:17:24.145Z,5.90
2019-01-26T20:19:52.105Z,6.35
2019-01-26T20:22:20.278Z,5.25
2019-01-26T20:27:21.572Z,6.40
2019-01-26T20:29:49.462Z,5.53
2019-01-26T20:32:17.389Z,5.55
2019-01-26T20:37:19.299Z,6.15
2019-01-26T20:39:47.264Z,5.67
2019-01-26T20:42:17.451Z,6.12
2019-01-26T20:44:45.432Z,4.90
2019-01-26T20:47:13.309Z,5.40
2019-01-26T20:49:41.218Z,6.12
2019-01-26T20:52:09.098Z,5.97
2019-01-26T20:54:37.512Z,6.10
2019-01-26T20:57:06.593Z,6.17
2019-01-26T21:02:41.938Z,5.15
2019-01-26T21:05:09.907Z,6.22
2019-01-26T21:07:37.887Z,5.37
2019-01-26T21:13:16.395Z,5.70
2019-01-26T21:15:44.478Z,5.03
2019-01-26T21:18:12.401Z,6.00
2019-01-26T21:20:40.339Z,6.35
2019-01-26T21:23:08.240Z,6.08
2019-01-26T21:25:36.116Z,5.62
2019-01-26T21:28:06.994Z,6.50
2019-01-26T21:30:34.858Z,5.62
2019-01-26T21:35:37.405Z,5.53
2019-01-26T21:38:05.318Z,6.30
2019-01-26T21:40:33.186Z,5.87
2019-01-26T21:43:01.400Z,5.70
2019-01-26T21:45:29.266Z,5.58
2019-01-26T21:47:57.129Z,5.75
2019-01-26T21:50:27.403Z,5.28
2019-01-26T21:52:55.604Z,4.72
2019-01-26T21:55:23.552Z,4.83
2019-01-26T21:57:51.667Z,4.97
2019-01-26T22:00:38.602Z,4.90
2019-01-26T22:03:06.610Z,5.05
2019-01-26T22:05:34.575Z,4.40
2019-01-26T22:08:02.574Z,5.17
2019-01-26T22:10:30.497Z,4.33
2019-01-26T22:12:58.418Z,4.22
2019-01-26T22:15:26.415Z,4.60
2019-01-26T22:17:54.354Z,4.08
2019-01-26T22:20:41.299Z,4.50
2019-01-26T22:23:09.630Z,3.50
2019-01-26T22:25:37.546Z,4.28
2019-01-26T22:28:05.470Z,3.08
2019-01-26T22:33:08.880Z,3.10
2019-01-26T22:35:36.777Z,2.87
2019-01-26T22:40:53.557Z,2.50
2019-01-26T22:43:21.468Z,2.55
2019-01-26T22:45:49.414Z,3.20
2019-01-26T22:48:17.293Z,2.12
2019-01-26T22:50:45.214Z,2.80
2019-01-26T22:53:15.827Z,2.75
2019-01-26T22:55:43.729Z,2.50
2019-01-26T22:58:11.638Z,2.60
2019-01-26T23:03:40.470Z,2.12
2019-01-26T23:06:27.406Z,2.50
2019-01-26T23:08:55.347Z,2.50
2019-01-26T23:11:42.411Z,1.95
2019-01-26T23:14:30.860Z,1.82
2019-01-26T23:17:18.113Z,2.58
2019-01-26T23:20:05.337Z,2.17
2019-01-26T23:22:52.309Z,2.33
2019-01-26T23:25:39.310Z,2.40
2019-01-26T23:28:26.237Z,2.42
2019-01-26T23:31:13.263Z,2.55
2019-01-26T23:33:41.243Z,2.10
2019-01-26T23:41:57.863Z,2.12
2019-01-26T23:44:25.786Z,2.80
2019-01-26T23:46:56.441Z,1.60
2019-01-26T23:49:24.382Z,2.15
2019-01-26T23:51:52.285Z,2.42
2019-01-26T23:54:39.186Z,2.10
2019-01-26T23:57:07.135Z,2.17
2019-01-26T23:59:35.136Z,1.90
